sensor_id;sensor_type;location;lat;lon;timestamp;temperature;humidity
20416;DHT22;10367;52.202;5.996;2023-04-15T00:01:14;6.30;99.90
20416;DHT22;10367;52.202;5.996;2023-04-15T00:03:46;6.30;99.90
20416;DHT22;10367;52.202;5.996;2023-04-15T00:06:15;6.20;99.90
20416;DHT22;10367;52.202;5.996;2023-04-15T00:08:44;6.20;99.90
20416;DHT22;10367;52.202;5.996;2023-04-15T00:11:17;6.20;99.90
20416;DHT22;10367;52.202;5.996;2023-04-15T00:13:46;6.10;99.90
20416;DHT22;10367;52.202;5.996;2023-04-15T00:16:15;6.10;99.90
20416;DHT22;10367;52.202;5.996;2023-04-15T00:18:44;6.00;99.90
20416;DHT22;10367;52.202;5.996;2023-04-15T00:21:13;5.90;99.90
20416;DHT22;10367;52.202;5.996;2023-04-15T00:23:42;5.90;99.90
20416;DHT22;10367;52.202;5.996;2023-04-15T00:26:10;5.90;99.90
20416;DHT22;10367;52.202;5.996;2023-04-15T00:28:41;5.80;99.90
20416;DHT22;10367;52.202;5.996;2023-04-15T00:31:10;5.80;99.90
20416;DHT22;10367;52.202;5.996;2023-04-15T00:33:38;5.90;99.90
20416;DHT22;10367;52.202;5.996;2023-04-15T00:36:09;5.80;99.90
20416;DHT22;10367;52.202;5.996;2023-04-15T00:38:38;5.80;99.90
20416;DHT22;10367;52.202;5.996;2023-04-15T00:41:07;5.80;99.90
20416;DHT22;10367;52.202;5.996;2023-04-15T00:43:36;5.80;99.90
20416;DHT22;10367;52.202;5.996;2023-04-15T00:46:07;5.70;99.90
20416;DHT22;10367;52.202;5.996;2023-04-15T00:48:37;5.70;99.90
20416;DHT22;10367;52.202;5.996;2023-04-15T00:51:06;5.60;99.90
20416;DHT22;10367;52.202;5.996;2023-04-15T00:53:35;5.60;99.90
20416;DHT22;10367;52.202;5.996;2023-04-15T00:56:05;5.60;99.90
20416;DHT22;10367;52.202;5.996;2023-04-15T00:58:34;5.50;99.90
20416;DHT22;10367;52.202;5.996;2023-04-15T01:01:03;5.40;99.90
20416;DHT22;10367;52.202;5.996;2023-04-15T01:03:34;5.40;99.90
20416;DHT22;10367;52.202;5.996;2023-04-15T01:06:03;5.40;99.90
20416;DHT22;10367;52.202;5.996;2023-04-15T01:08:32;5.40;99.90
20416;DHT22;10367;52.202;5.996;2023-04-15T01:11:01;5.30;99.90
20416;DHT22;10367;52.202;5.996;2023-04-15T01:13:31;5.30;99.90
20416;DHT22;10367;52.202;5.996;2023-04-15T01:16:01;5.30;99.90
20416;DHT22;10367;52.202;5.996;2023-04-15T01:18:34;5.20;99.90
20416;DHT22;10367;52.202;5.996;2023-04-15T01:21:04;5.20;99.90
20416;DHT22;10367;52.202;5.996;2023-04-15T01:23:37;5.20;99.90
20416;DHT22;10367;52.202;5.996;2023-04-15T01:26:07;5.20;99.90
20416;DHT22;10367;52.202;5.996;2023-04-15T01:28:45;5.20;99.90
20416;DHT22;10367;52.202;5.996;2023-04-15T01:31:15;5.20;99.90
20416;DHT22;10367;52.202;5.996;2023-04-15T01:33:45;5.10;99.90
20416;DHT22;10367;52.202;5.996;2023-04-15T01:36:14;5.00;99.90
20416;DHT22;10367;52.202;5.996;2023-04-15T01:38:43;5.00;99.90
20416;DHT22;10367;52.202;5.996;2023-04-15T01:41:14;5.00;99.90
20416;DHT22;10367;52.202;5.996;2023-04-15T01:43:43;5.00;99.90
20416;DHT22;10367;52.202;5.996;2023-04-15T01:46:12;5.00;99.90
20416;DHT22;10367;52.202;5.996;2023-04-15T01:48:41;5.00;99.90
20416;DHT22;10367;52.202;5.996;2023-04-15T01:51:13;4.90;99.90
20416;DHT22;10367;52.202;5.996;2023-04-15T01:53:44;4.90;99.90
20416;DHT22;10367;52.202;5.996;2023-04-15T01:56:14;4.90;99.90
20416;DHT22;10367;52.202;5.996;2023-04-15T01:58:43;4.90;99.90
20416;DHT22;10367;52.202;5.996;2023-04-15T02:01:13;4.90;99.90
20416;DHT22;10367;52.202;5.996;2023-04-15T02:03:43;4.90;99.90
20416;DHT22;10367;52.202;5.996;2023-04-15T02:06:12;4.80;99.90
20416;DHT22;10367;52.202;5.996;2023-04-15T02:08:41;4.80;99.90
20416;DHT22;10367;52.202;5.996;2023-04-15T02:11:09;4.80;99.90
20416;DHT22;10367;52.202;5.996;2023-04-15T02:13:40;4.70;99.90
20416;DHT22;10367;52.202;5.996;2023-04-15T02:16:15;4.70;99.90
20416;DHT22;10367;52.202;5.996;2023-04-15T02:18:45;4.70;99.90
20416;DHT22;10367;52.202;5.996;2023-04-15T02:21:15;4.70;99.90
20416;DHT22;10367;52.202;5.996;2023-04-15T02:23:45;4.70;99.90
20416;DHT22;10367;52.202;5.996;2023-04-15T02:26:15;4.70;99.90
20416;DHT22;10367;52.202;5.996;2023-04-15T02:28:48;4.70;99.90
20416;DHT22;10367;52.202;5.996;2023-04-15T02:31:20;4.60;99.90
20416;DHT22;10367;52.202;5.996;2023-04-15T02:33:49;4.70;99.90
20416;DHT22;10367;52.202;5.996;2023-04-15T02:36:17;4.60;99.90
20416;DHT22;10367;52.202;5.996;2023-04-15T02:38:47;4.60;99.90
20416;DHT22;10367;52.202;5.996;2023-04-15T02:41:16;4.60;99.90
20416;DHT22;10367;52.202;5.996;2023-04-15T02:43:46;4.60;99.90
20416;DHT22;10367;52.202;5.996;2023-04-15T02:46:15;4.60;99.90
20416;DHT22;10367;52.202;5.996;2023-04-15T02:48:44;4.60;99.90
20416;DHT22;10367;52.202;5.996;2023-04-15T02:51:14;4.60;99.90
20416;DHT22;10367;52.202;5.996;2023-04-15T02:53:43;4.60;99.90
20416;DHT22;10367;52.202;5.996;2023-04-15T02:56:11;4.60;99.90
20416;DHT22;10367;52.202;5.996;2023-04-15T02:58:42;4.70;99.90
20416;DHT22;10367;52.202;5.996;2023-04-15T03:01:12;4.60;99.90
20416;DHT22;10367;52.202;5.996;2023-04-15T03:03:41;4.60;99.90
20416;DHT22;10367;52.202;5.996;2023-04-15T03:06:10;4.60;99.90
20416;DHT22;10367;52.202;5.996;2023-04-15T03:08:39;4.70;99.90
20416;DHT22;10367;52.202;5.996;2023-04-15T03:11:08;4.60;99.90
20416;DHT22;10367;52.202;5.996;2023-04-15T03:13:36;4.60;99.90
20416;DHT22;10367;52.202;5.996;2023-04-15T03:16:08;4.70;99.90
20416;DHT22;10367;52.202;5.996;2023-04-15T03:18:39;4.60;99.90
20416;DHT22;10367;52.202;5.996;2023-04-15T03:21:07;4.60;99.90
20416;DHT22;10367;52.202;5.996;2023-04-15T03:23:36;4.60;99.90
20416;DHT22;10367;52.202;5.996;2023-04-15T03:26:07;4.60;99.90
20416;DHT22;10367;52.202;5.996;2023-04-15T03:28:36;4.60;99.90
20416;DHT22;10367;52.202;5.996;2023-04-15T03:31:05;4.60;99.90
20416;DHT22;10367;52.202;5.996;2023-04-15T03:33:34;4.50;99.90
20416;DHT22;10367;52.202;5.996;2023-04-15T03:36:05;4.50;99.90
20416;DHT22;10367;52.202;5.996;2023-04-15T03:38:34;4.50;99.90
20416;DHT22;10367;52.202;5.996;2023-04-15T03:41:02;4.50;99.90
20416;DHT22;10367;52.202;5.996;2023-04-15T03:43:31;4.40;99.90
20416;DHT22;10367;52.202;5.996;2023-04-15T03:46:00;4.40;99.90
20416;DHT22;10367;52.202;5.996;2023-04-15T03:48:29;4.40;99.90
20416;DHT22;10367;52.202;5.996;2023-04-15T03:50:58;4.40;99.90
20416;DHT22;10367;52.202;5.996;2023-04-15T03:53:28;4.30;99.90
20416;DHT22;10367;52.202;5.996;2023-04-15T03:55:57;4.30;99.90
20416;DHT22;10367;52.202;5.996;2023-04-15T03:58:26;4.30;99.90
20416;DHT22;10367;52.202;5.996;2023-04-15T04:00:54;4.30;99.90
20416;DHT22;10367;52.202;5.996;2023-04-15T04:03:23;4.30;99.90
20416;DHT22;10367;52.202;5.996;2023-04-15T04:05:52;4.30;99.90
20416;DHT22;10367;52.202;5.996;2023-04-15T04:08:21;4.20;99.90
20416;DHT22;10367;52.202;5.996;2023-04-15T04:10:51;4.20;99.90
20416;DHT22;10367;52.202;5.996;2023-04-15T04:13:20;4.20;99.90
20416;DHT22;10367;52.202;5.996;2023-04-15T04:15:48;4.10;99.90
20416;DHT22;10367;52.202;5.996;2023-04-15T04:18:17;4.10;99.90
20416;DHT22;10367;52.202;5.996;2023-04-15T04:20:48;4.10;99.90
20416;DHT22;10367;52.202;5.996;2023-04-15T04:23:17;4.10;99.90
20416;DHT22;10367;52.202;5.996;2023-04-15T04:25:46;4.10;99.90
20416;DHT22;10367;52.202;5.996;2023-04-15T04:28:17;4.10;99.90
20416;DHT22;10367;52.202;5.996;2023-04-15T04:30:45;4.10;99.90
20416;DHT22;10367;52.202;5.996;2023-04-15T04:33:17;4.10;99.90
20416;DHT22;10367;52.202;5.996;2023-04-15T04:35:45;4.00;99.90
20416;DHT22;10367;52.202;5.996;2023-04-15T04:38:14;4.00;99.90
20416;DHT22;10367;52.202;5.996;2023-04-15T04:40:43;3.90;99.90
20416;DHT22;10367;52.202;5.996;2023-04-15T04:43:12;3.90;99.90
20416;DHT22;10367;52.202;5.996;2023-04-15T04:45:42;4.00;99.90
20416;DHT22;10367;52.202;5.996;2023-04-15T04:48:13;3.90;99.90
20416;DHT22;10367;52.202;5.996;2023-04-15T04:50:50;4.00;99.90
20416;DHT22;10367;52.202;5.996;2023-04-15T04:53:19;4.00;99.90
20416;DHT22;10367;52.202;5.996;2023-04-15T04:55:48;3.90;99.90
20416;DHT22;10367;52.202;5.996;2023-04-15T04:58:16;3.90;99.90
20416;DHT22;10367;52.202;5.996;2023-04-15T05:00:50;4.00;99.90
20416;DHT22;10367;52.202;5.996;2023-04-15T05:03:26;4.00;99.90
20416;DHT22;10367;52.202;5.996;2023-04-15T05:05:57;4.00;99.90
20416;DHT22;10367;52.202;5.996;2023-04-15T05:08:26;4.10;99.90
20416;DHT22;10367;52.202;5.996;2023-04-15T05:11:14;4.00;99.90
20416;DHT22;10367;52.202;5.996;2023-04-15T05:13:52;4.00;99.90
20416;DHT22;10367;52.202;5.996;2023-04-15T05:16:24;4.10;99.90
20416;DHT22;10367;52.202;5.996;2023-04-15T05:18:58;4.10;99.90
20416;DHT22;10367;52.202;5.996;2023-04-15T05:21:30;4.10;99.90
20416;DHT22;10367;52.202;5.996;2023-04-15T05:24:05;4.20;99.90
20416;DHT22;10367;52.202;5.996;2023-04-15T05:26:34;4.20;99.90
20416;DHT22;10367;52.202;5.996;2023-04-15T05:29:02;4.30;99.90
20416;DHT22;10367;52.202;5.996;2023-04-15T05:31:32;4.30;99.90
20416;DHT22;10367;52.202;5.996;2023-04-15T05:34:01;4.40;99.90
20416;DHT22;10367;52.202;5.996;2023-04-15T05:36:31;4.50;99.90
20416;DHT22;10367;52.202;5.996;2023-04-15T05:39:00;4.60;99.90
20416;DHT22;10367;52.202;5.996;2023-04-15T05:41:29;4.60;99.90
20416;DHT22;10367;52.202;5.996;2023-04-15T05:44:10;4.70;99.90
20416;DHT22;10367;52.202;5.996;2023-04-15T05:46:41;4.80;99.90
20416;DHT22;10367;52.202;5.996;2023-04-15T05:49:10;4.90;99.90
20416;DHT22;10367;52.202;5.996;2023-04-15T05:51:38;5.00;99.90
20416;DHT22;10367;52.202;5.996;2023-04-15T05:54:15;5.10;99.90
20416;DHT22;10367;52.202;5.996;2023-04-15T05:56:46;5.30;99.90
20416;DHT22;10367;52.202;5.996;2023-04-15T05:59:16;5.40;99.90
20416;DHT22;10367;52.202;5.996;2023-04-15T06:01:49;5.50;99.90
20416;DHT22;10367;52.202;5.996;2023-04-15T06:04:19;5.60;99.90
20416;DHT22;10367;52.202;5.996;2023-04-15T06:06:49;5.70;99.90
20416;DHT22;10367;52.202;5.996;2023-04-15T06:09:18;5.90;99.90
20416;DHT22;10367;52.202;5.996;2023-04-15T06:11:47;6.00;99.90
20416;DHT22;10367;52.202;5.996;2023-04-15T06:14:15;6.10;99.90
20416;DHT22;10367;52.202;5.996;2023-04-15T06:16:44;6.10;99.90
20416;DHT22;10367;52.202;5.996;2023-04-15T06:19:15;6.20;99.90
20416;DHT22;10367;52.202;5.996;2023-04-15T06:21:45;6.20;99.90
20416;DHT22;10367;52.202;5.996;2023-04-15T06:24:14;6.30;99.90
20416;DHT22;10367;52.202;5.996;2023-04-15T06:26:42;6.30;99.90
20416;DHT22;10367;52.202;5.996;2023-04-15T06:29:11;6.30;99.90
20416;DHT22;10367;52.202;5.996;2023-04-15T06:31:40;6.30;99.90
20416;DHT22;10367;52.202;5.996;2023-04-15T06:34:08;6.30;99.90
20416;DHT22;10367;52.202;5.996;2023-04-15T06:36:38;6.40;99.90
20416;DHT22;10367;52.202;5.996;2023-04-15T06:39:07;6.50;99.90
20416;DHT22;10367;52.202;5.996;2023-04-15T06:41:36;6.60;99.90
20416;DHT22;10367;52.202;5.996;2023-04-15T06:44:05;6.70;99.90
20416;DHT22;10367;52.202;5.996;2023-04-15T06:46:36;6.70;99.90
20416;DHT22;10367;52.202;5.996;2023-04-15T06:49:05;6.80;99.90
20416;DHT22;10367;52.202;5.996;2023-04-15T06:51:38;6.80;99.90
20416;DHT22;10367;52.202;5.996;2023-04-15T06:54:08;6.90;99.90
20416;DHT22;10367;52.202;5.996;2023-04-15T06:56:37;6.90;99.90
20416;DHT22;10367;52.202;5.996;2023-04-15T06:59:06;6.90;99.90
20416;DHT22;10367;52.202;5.996;2023-04-15T07:01:35;7.00;99.90
20416;DHT22;10367;52.202;5.996;2023-04-15T07:04:04;7.00;99.90
20416;DHT22;10367;52.202;5.996;2023-04-15T07:06:33;7.10;99.90
20416;DHT22;10367;52.202;5.996;2023-04-15T07:09:03;7.20;99.90
20416;DHT22;10367;52.202;5.996;2023-04-15T07:11:32;7.30;99.90
20416;DHT22;10367;52.202;5.996;2023-04-15T07:14:03;7.40;99.90
20416;DHT22;10367;52.202;5.996;2023-04-15T07:16:32;7.50;99.90
20416;DHT22;10367;52.202;5.996;2023-04-15T07:19:00;7.50;99.90
20416;DHT22;10367;52.202;5.996;2023-04-15T07:21:30;7.60;99.90
20416;DHT22;10367;52.202;5.996;2023-04-15T07:23:59;7.70;99.90
20416;DHT22;10367;52.202;5.996;2023-04-15T07:26:29;7.90;99.90
20416;DHT22;10367;52.202;5.996;2023-04-15T07:28:57;8.00;99.90
20416;DHT22;10367;52.202;5.996;2023-04-15T07:31:26;8.10;99.90
20416;DHT22;10367;52.202;5.996;2023-04-15T07:33:55;8.20;99.90
20416;DHT22;10367;52.202;5.996;2023-04-15T07:36:24;8.30;99.90
20416;DHT22;10367;52.202;5.996;2023-04-15T07:38:53;8.50;99.90
20416;DHT22;10367;52.202;5.996;2023-04-15T07:41:22;8.60;99.90
20416;DHT22;10367;52.202;5.996;2023-04-15T07:43:58;8.70;99.90
20416;DHT22;10367;52.202;5.996;2023-04-15T07:46:27;8.80;99.90
20416;DHT22;10367;52.202;5.996;2023-04-15T07:48:56;8.90;99.90
20416;DHT22;10367;52.202;5.996;2023-04-15T07:51:25;9.00;99.90
20416;DHT22;10367;52.202;5.996;2023-04-15T07:53:58;9.10;99.90
20416;DHT22;10367;52.202;5.996;2023-04-15T07:56:27;9.20;99.90
20416;DHT22;10367;52.202;5.996;2023-04-15T07:58:59;9.30;99.90
20416;DHT22;10367;52.202;5.996;2023-04-15T08:01:32;9.50;99.90
20416;DHT22;10367;52.202;5.996;2023-04-15T08:04:03;9.60;99.90
20416;DHT22;10367;52.202;5.996;2023-04-15T08:06:34;9.70;99.90
20416;DHT22;10367;52.202;5.996;2023-04-15T08:09:07;9.80;99.90
20416;DHT22;10367;52.202;5.996;2023-04-15T08:11:37;10.00;99.90
20416;DHT22;10367;52.202;5.996;2023-04-15T08:14:07;10.00;99.90
20416;DHT22;10367;52.202;5.996;2023-04-15T08:16:36;10.00;99.90
20416;DHT22;10367;52.202;5.996;2023-04-15T08:19:05;10.00;99.90
20416;DHT22;10367;52.202;5.996;2023-04-15T08:21:36;10.00;99.90
20416;DHT22;10367;52.202;5.996;2023-04-15T08:24:06;10.00;99.90
20416;DHT22;10367;52.202;5.996;2023-04-15T08:26:35;10.10;99.90
20416;DHT22;10367;52.202;5.996;2023-04-15T08:29:04;10.20;99.90
20416;DHT22;10367;52.202;5.996;2023-04-15T08:31:34;10.10;99.90
20416;DHT22;10367;52.202;5.996;2023-04-15T08:34:02;10.20;99.90
20416;DHT22;10367;52.202;5.996;2023-04-15T08:36:31;10.20;99.90
20416;DHT22;10367;52.202;5.996;2023-04-15T08:39:00;10.20;99.90
20416;DHT22;10367;52.202;5.996;2023-04-15T08:41:33;10.30;99.90
20416;DHT22;10367;52.202;5.996;2023-04-15T08:44:06;10.40;99.90
20416;DHT22;10367;52.202;5.996;2023-04-15T08:46:37;10.50;99.90
20416;DHT22;10367;52.202;5.996;2023-04-15T08:49:09;10.70;99.90
20416;DHT22;10367;52.202;5.996;2023-04-15T08:51:38;10.80;99.90
20416;DHT22;10367;52.202;5.996;2023-04-15T08:54:08;10.90;99.90
20416;DHT22;10367;52.202;5.996;2023-04-15T08:56:38;11.00;99.90
20416;DHT22;10367;52.202;5.996;2023-04-15T08:59:07;11.00;99.90
20416;DHT22;10367;52.202;5.996;2023-04-15T09:01:39;10.90;99.90
20416;DHT22;10367;52.202;5.996;2023-04-15T09:04:08;11.00;99.90
20416;DHT22;10367;52.202;5.996;2023-04-15T09:06:39;11.10;99.90
20416;DHT22;10367;52.202;5.996;2023-04-15T09:09:08;11.40;99.90
20416;DHT22;10367;52.202;5.996;2023-04-15T09:11:36;11.50;99.90
20416;DHT22;10367;52.202;5.996;2023-04-15T09:14:05;11.60;99.90
20416;DHT22;10367;52.202;5.996;2023-04-15T09:16:59;11.60;99.90
20416;DHT22;10367;52.202;5.996;2023-04-15T09:19:29;11.70;99.90
20416;DHT22;10367;52.202;5.996;2023-04-15T09:21:59;11.50;99.90
20416;DHT22;10367;52.202;5.996;2023-04-15T09:24:35;11.50;99.90
20416;DHT22;10367;52.202;5.996;2023-04-15T09:27:05;11.60;99.90
20416;DHT22;10367;52.202;5.996;2023-04-15T09:29:34;11.70;99.90
20416;DHT22;10367;52.202;5.996;2023-04-15T09:32:12;11.80;99.90
20416;DHT22;10367;52.202;5.996;2023-04-15T09:34:42;11.70;99.90
20416;DHT22;10367;52.202;5.996;2023-04-15T09:37:11;11.70;99.90
20416;DHT22;10367;52.202;5.996;2023-04-15T09:39:58;11.80;99.90
20416;DHT22;10367;52.202;5.996;2023-04-15T09:42:26;12.20;99.90
20416;DHT22;10367;52.202;5.996;2023-04-15T09:44:55;12.30;99.90
20416;DHT22;10367;52.202;5.996;2023-04-15T09:47:36;12.10;99.90
20416;DHT22;10367;52.202;5.996;2023-04-15T09:50:06;12.10;99.90
20416;DHT22;10367;52.202;5.996;2023-04-15T09:52:40;12.00;99.90
20416;DHT22;10367;52.202;5.996;2023-04-15T09:55:10;12.00;99.90
20416;DHT22;10367;52.202;5.996;2023-04-15T09:57:39;12.20;99.90
20416;DHT22;10367;52.202;5.996;2023-04-15T10:00:09;12.30;99.90
20416;DHT22;10367;52.202;5.996;2023-04-15T10:02:40;12.40;99.90
20416;DHT22;10367;52.202;5.996;2023-04-15T10:05:10;12.50;99.90
20416;DHT22;10367;52.202;5.996;2023-04-15T10:07:39;12.90;99.90
20416;DHT22;10367;52.202;5.996;2023-04-15T10:10:10;13.10;99.90
20416;DHT22;10367;52.202;5.996;2023-04-15T10:12:40;13.10;99.90
20416;DHT22;10367;52.202;5.996;2023-04-15T10:15:14;12.90;99.90
20416;DHT22;10367;52.202;5.996;2023-04-15T10:17:47;12.80;99.90
20416;DHT22;10367;52.202;5.996;2023-04-15T10:20:18;12.90;99.90
20416;DHT22;10367;52.202;5.996;2023-04-15T10:22:48;12.80;99.90
20416;DHT22;10367;52.202;5.996;2023-04-15T10:25:17;13.10;99.90
20416;DHT22;10367;52.202;5.996;2023-04-15T10:27:46;13.20;99.90
20416;DHT22;10367;52.202;5.996;2023-04-15T10:30:16;13.30;99.90
20416;DHT22;10367;52.202;5.996;2023-04-15T10:32:47;13.40;99.90
20416;DHT22;10367;52.202;5.996;2023-04-15T10:35:17;13.40;99.90
20416;DHT22;10367;52.202;5.996;2023-04-15T10:37:46;13.50;99.90
20416;DHT22;10367;52.202;5.996;2023-04-15T10:40:27;13.50;99.90
20416;DHT22;10367;52.202;5.996;2023-04-15T10:42:58;13.30;99.90
20416;DHT22;10367;52.202;5.996;2023-04-15T10:45:31;13.00;99.90
20416;DHT22;10367;52.202;5.996;2023-04-15T10:48:03;12.70;99.90
20416;DHT22;10367;52.202;5.996;2023-04-15T10:50:34;12.90;99.90
20416;DHT22;10367;52.202;5.996;2023-04-15T10:53:06;13.00;99.90
20416;DHT22;10367;52.202;5.996;2023-04-15T10:55:37;12.90;99.90
20416;DHT22;10367;52.202;5.996;2023-04-15T10:58:09;12.90;99.90
20416;DHT22;10367;52.202;5.996;2023-04-15T11:00:37;12.80;99.90
20416;DHT22;10367;52.202;5.996;2023-04-15T11:03:08;12.80;99.90
20416;DHT22;10367;52.202;5.996;2023-04-15T11:05:50;12.80;99.90
20416;DHT22;10367;52.202;5.996;2023-04-15T11:08:19;12.90;99.90
20416;DHT22;10367;52.202;5.996;2023-04-15T11:10:52;13.00;99.90
20416;DHT22;10367;52.202;5.996;2023-04-15T11:13:22;13.10;99.90
20416;DHT22;10367;52.202;5.996;2023-04-15T11:16:00;13.10;99.90
20416;DHT22;10367;52.202;5.996;2023-04-15T11:18:32;13.10;99.90
20416;DHT22;10367;52.202;5.996;2023-04-15T11:21:03;13.30;99.90
20416;DHT22;10367;52.202;5.996;2023-04-15T11:23:35;13.40;99.90
20416;DHT22;10367;52.202;5.996;2023-04-15T11:26:05;13.80;99.90
20416;DHT22;10367;52.202;5.996;2023-04-15T11:28:36;13.90;99.90
20416;DHT22;10367;52.202;5.996;2023-04-15T11:31:07;14.00;99.90
20416;DHT22;10367;52.202;5.996;2023-04-15T11:33:44;13.90;99.90
20416;DHT22;10367;52.202;5.996;2023-04-15T11:36:13;13.90;99.90
20416;DHT22;10367;52.202;5.996;2023-04-15T11:38:43;13.60;99.90
20416;DHT22;10367;52.202;5.996;2023-04-15T11:41:12;13.40;99.90
20416;DHT22;10367;52.202;5.996;2023-04-15T11:43:41;13.30;99.90
20416;DHT22;10367;52.202;5.996;2023-04-15T11:46:10;13.20;99.90
20416;DHT22;10367;52.202;5.996;2023-04-15T11:48:42;13.20;99.90
20416;DHT22;10367;52.202;5.996;2023-04-15T11:51:12;13.10;99.90
20416;DHT22;10367;52.202;5.996;2023-04-15T11:53:42;13.00;99.90
20416;DHT22;10367;52.202;5.996;2023-04-15T11:56:16;13.20;99.90
20416;DHT22;10367;52.202;5.996;2023-04-15T11:58:45;13.30;99.90
20416;DHT22;10367;52.202;5.996;2023-04-15T12:01:17;13.40;99.90
20416;DHT22;10367;52.202;5.996;2023-04-15T12:03:48;13.70;99.90
20416;DHT22;10367;52.202;5.996;2023-04-15T12:06:18;13.80;99.90
20416;DHT22;10367;52.202;5.996;2023-04-15T12:08:57;13.70;99.90
20416;DHT22;10367;52.202;5.996;2023-04-15T12:11:28;13.80;99.90
20416;DHT22;10367;52.202;5.996;2023-04-15T12:13:59;14.00;99.90
20416;DHT22;10367;52.202;5.996;2023-04-15T12:16:31;14.30;99.90
20416;DHT22;10367;52.202;5.996;2023-04-15T12:19:17;14.10;99.90
20416;DHT22;10367;52.202;5.996;2023-04-15T12:21:47;13.70;99.90
20416;DHT22;10367;52.202;5.996;2023-04-15T12:24:20;13.50;99.90
20416;DHT22;10367;52.202;5.996;2023-04-15T12:26:50;13.50;99.90
20416;DHT22;10367;52.202;5.996;2023-04-15T12:29:23;13.40;99.90
20416;DHT22;10367;52.202;5.996;2023-04-15T12:31:54;13.80;99.90
20416;DHT22;10367;52.202;5.996;2023-04-15T12:34:28;14.10;99.90
20416;DHT22;10367;52.202;5.996;2023-04-15T12:37:00;14.30;99.90
20416;DHT22;10367;52.202;5.996;2023-04-15T12:39:30;14.60;99.90
20416;DHT22;10367;52.202;5.996;2023-04-15T12:41:59;14.70;99.90
20416;DHT22;10367;52.202;5.996;2023-04-15T12:44:28;14.40;99.90
20416;DHT22;10367;52.202;5.996;2023-04-15T12:46:57;14.20;99.90
20416;DHT22;10367;52.202;5.996;2023-04-15T12:49:28;14.00;99.90
20416;DHT22;10367;52.202;5.996;2023-04-15T12:51:58;13.80;99.90
20416;DHT22;10367;52.202;5.996;2023-04-15T12:54:27;13.70;99.90
20416;DHT22;10367;52.202;5.996;2023-04-15T12:56:57;13.60;99.90
20416;DHT22;10367;52.202;5.996;2023-04-15T12:59:26;13.50;99.90
20416;DHT22;10367;52.202;5.996;2023-04-15T13:01:54;13.40;99.90
20416;DHT22;10367;52.202;5.996;2023-04-15T13:04:23;13.30;99.90
20416;DHT22;10367;52.202;5.996;2023-04-15T13:06:53;13.20;99.90
20416;DHT22;10367;52.202;5.996;2023-04-15T13:09:22;13.10;99.90
20416;DHT22;10367;52.202;5.996;2023-04-15T13:11:51;13.10;99.90
20416;DHT22;10367;52.202;5.996;2023-04-15T13:14:20;13.10;99.90
20416;DHT22;10367;52.202;5.996;2023-04-15T13:16:49;13.30;99.90
20416;DHT22;10367;52.202;5.996;2023-04-15T13:19:18;13.20;99.90
20416;DHT22;10367;52.202;5.996;2023-04-15T13:21:46;13.10;99.90
20416;DHT22;10367;52.202;5.996;2023-04-15T13:24:17;13.00;99.90
20416;DHT22;10367;52.202;5.996;2023-04-15T13:26:45;13.00;99.90
20416;DHT22;10367;52.202;5.996;2023-04-15T13:29:16;13.00;99.90
20416;DHT22;10367;52.202;5.996;2023-04-15T13:31:45;12.90;99.90
20416;DHT22;10367;52.202;5.996;2023-04-15T13:34:14;12.90;99.90
20416;DHT22;10367;52.202;5.996;2023-04-15T13:36:42;12.80;99.90
20416;DHT22;10367;52.202;5.996;2023-04-15T13:39:12;12.60;99.90
20416;DHT22;10367;52.202;5.996;2023-04-15T13:41:42;12.40;99.90
20416;DHT22;10367;52.202;5.996;2023-04-15T13:44:10;12.40;99.90
20416;DHT22;10367;52.202;5.996;2023-04-15T13:46:39;12.30;99.90
20416;DHT22;10367;52.202;5.996;2023-04-15T13:49:09;12.10;99.90
20416;DHT22;10367;52.202;5.996;2023-04-15T13:51:37;12.20;99.90
20416;DHT22;10367;52.202;5.996;2023-04-15T13:54:06;12.00;99.90
20416;DHT22;10367;52.202;5.996;2023-04-15T13:56:35;11.80;99.90
20416;DHT22;10367;52.202;5.996;2023-04-15T13:59:05;11.60;99.90
20416;DHT22;10367;52.202;5.996;2023-04-15T14:01:35;11.60;99.90
20416;DHT22;10367;52.202;5.996;2023-04-15T14:04:04;11.50;99.90
20416;DHT22;10367;52.202;5.996;2023-04-15T14:06:35;11.50;99.90
20416;DHT22;10367;52.202;5.996;2023-04-15T14:09:04;11.50;99.90
20416;DHT22;10367;52.202;5.996;2023-04-15T14:11:33;11.60;99.90
20416;DHT22;10367;52.202;5.996;2023-04-15T14:14:03;11.50;99.90
20416;DHT22;10367;52.202;5.996;2023-04-15T14:16:33;11.40;99.90
20416;DHT22;10367;52.202;5.996;2023-04-15T14:19:02;11.30;99.90
20416;DHT22;10367;52.202;5.996;2023-04-15T14:21:31;11.20;99.90
20416;DHT22;10367;52.202;5.996;2023-04-15T14:24:00;11.30;99.90
20416;DHT22;10367;52.202;5.996;2023-04-15T14:26:30;11.20;99.90
20416;DHT22;10367;52.202;5.996;2023-04-15T14:28:59;11.30;99.90
20416;DHT22;10367;52.202;5.996;2023-04-15T14:31:28;11.20;99.90
20416;DHT22;10367;52.202;5.996;2023-04-15T14:33:58;11.10;99.90
20416;DHT22;10367;52.202;5.996;2023-04-15T14:36:27;11.10;99.90
20416;DHT22;10367;52.202;5.996;2023-04-15T14:38:56;11.00;99.90
20416;DHT22;10367;52.202;5.996;2023-04-15T14:41:24;10.90;99.90
20416;DHT22;10367;52.202;5.996;2023-04-15T14:43:53;10.80;99.90
20416;DHT22;10367;52.202;5.996;2023-04-15T14:46:23;10.70;99.90
20416;DHT22;10367;52.202;5.996;2023-04-15T14:48:55;10.60;99.90
20416;DHT22;10367;52.202;5.996;2023-04-15T14:51:26;10.60;99.90
20416;DHT22;10367;52.202;5.996;2023-04-15T14:53:54;10.60;99.90
20416;DHT22;10367;52.202;5.996;2023-04-15T14:56:23;10.80;99.90
20416;DHT22;10367;52.202;5.996;2023-04-15T14:58:52;10.90;99.90
20416;DHT22;10367;52.202;5.996;2023-04-15T15:01:20;11.00;99.90
20416;DHT22;10367;52.202;5.996;2023-04-15T15:03:49;11.10;99.90
20416;DHT22;10367;52.202;5.996;2023-04-15T15:06:19;11.10;99.90
20416;DHT22;10367;52.202;5.996;2023-04-15T15:08:52;11.00;99.90
20416;DHT22;10367;52.202;5.996;2023-04-15T15:11:21;10.90;99.90
20416;DHT22;10367;52.202;5.996;2023-04-15T15:13:49;10.70;99.90
20416;DHT22;10367;52.202;5.996;2023-04-15T15:16:18;10.60;99.90
20416;DHT22;10367;52.202;5.996;2023-04-15T15:18:47;10.70;99.90
20416;DHT22;10367;52.202;5.996;2023-04-15T15:21:17;10.70;99.90
20416;DHT22;10367;52.202;5.996;2023-04-15T15:23:46;10.80;99.90
20416;DHT22;10367;52.202;5.996;2023-04-15T15:26:16;10.80;99.90
20416;DHT22;10367;52.202;5.996;2023-04-15T15:28:45;10.70;99.90
20416;DHT22;10367;52.202;5.996;2023-04-15T15:31:16;10.70;99.90
20416;DHT22;10367;52.202;5.996;2023-04-15T15:33:45;10.70;99.90
20416;DHT22;10367;52.202;5.996;2023-04-15T15:36:13;10.60;99.90
20416;DHT22;10367;52.202;5.996;2023-04-15T15:38:43;10.50;99.90
20416;DHT22;10367;52.202;5.996;2023-04-15T15:41:12;10.40;99.90
20416;DHT22;10367;52.202;5.996;2023-04-15T15:43:43;10.40;99.90
20416;DHT22;10367;52.202;5.996;2023-04-15T15:46:12;10.50;99.90
20416;DHT22;10367;52.202;5.996;2023-04-15T15:48:40;10.60;99.90
20416;DHT22;10367;52.202;5.996;2023-04-15T15:51:09;10.70;99.90
20416;DHT22;10367;52.202;5.996;2023-04-15T15:53:38;10.60;99.90
20416;DHT22;10367;52.202;5.996;2023-04-15T15:56:07;10.50;99.90